sensor_id;sensor_type;location;lat;lon;timestamp;pressure;altitude;pressure_sealevel;temperature;humidity
59337;BME280;45115;52.002;4.686;2022-09-06T00:01:18;101567.94;;;17.74;100.00
59337;BME280;45115;52.002;4.686;2022-09-06T00:03:48;101567.25;;;17.69;100.00
59337;BME280;45115;52.002;4.686;2022-09-06T00:06:16;101576.88;;;17.70;100.00
59337;BME280;45115;52.002;4.686;2022-09-06T00:08:44;101579.47;;;17.75;100.00
59337;BME280;45115;52.002;4.686;2022-09-06T00:11:13;101586.72;;;17.88;100.00
59337;BME280;45115;52.002;4.686;2022-09-06T00:13:40;101598.38;;;17.98;100.00
59337;BME280;45115;52.002;4.686;2022-09-06T00:16:08;101618.34;;;18.05;100.00
59337;BME280;45115;52.002;4.686;2022-09-06T00:18:36;101634.09;;;18.12;100.00
59337;BME280;45115;52.002;4.686;2022-09-06T00:21:02;101627.91;;;18.12;100.00
59337;BME280;45115;52.002;4.686;2022-09-06T00:23:29;101632.16;;;17.99;100.00
59337;BME280;45115;52.002;4.686;2022-09-06T00:26:01;101638.94;;;17.96;100.00
59337;BME280;45115;52.002;4.686;2022-09-06T00:28:29;101642.91;;;17.85;100.00
59337;BME280;45115;52.002;4.686;2022-09-06T00:30:55;101636.91;;;17.74;100.00
59337;BME280;45115;52.002;4.686;2022-09-06T00:33:22;101650.63;;;17.72;100.00
59337;BME280;45115;52.002;4.686;2022-09-06T00:35:49;101649.34;;;17.70;100.00
59337;BME280;45115;52.002;4.686;2022-09-06T00:38:16;101656.81;;;17.73;100.00
59337;BME280;45115;52.002;4.686;2022-09-06T00:40:42;101651.16;;;17.74;100.00
59337;BME280;45115;52.002;4.686;2022-09-06T00:43:09;101652.25;;;17.73;100.00
59337;BME280;45115;52.002;4.686;2022-09-06T00:45:37;101661.69;;;17.71;100.00
59337;BME280;45115;52.002;4.686;2022-09-06T00:48:04;101660.69;;;17.66;100.00
59337;BME280;45115;52.002;4.686;2022-09-06T00:50:31;101662.16;;;17.59;100.00
59337;BME280;45115;52.002;4.686;2022-09-06T00:52:58;101653.38;;;17.53;100.00
59337;BME280;45115;52.002;4.686;2022-09-06T00:55:25;101627.72;;;17.33;100.00
59337;BME280;45115;52.002;4.686;2022-09-06T00:57:52;101644.72;;;17.42;100.00
59337;BME280;45115;52.002;4.686;2022-09-06T01:00:20;101629.91;;;17.31;100.00
59337;BME280;45115;52.002;4.686;2022-09-06T01:02:48;101623.81;;;17.25;100.00
59337;BME280;45115;52.002;4.686;2022-09-06T01:05:15;101618.75;;;17.23;100.00
59337;BME280;45115;52.002;4.686;2022-09-06T01:08:00;101610.38;;;17.11;100.00
59337;BME280;45115;52.002;4.686;2022-09-06T01:10:46;101603.19;;;17.06;100.00
59337;BME280;45115;52.002;4.686;2022-09-06T01:13:27;101605.22;;;16.95;100.00
59337;BME280;45115;52.002;4.686;2022-09-06T01:16:02;101593.00;;;17.08;100.00
59337;BME280;45115;52.002;4.686;2022-09-06T01:18:47;101572.63;;;17.07;100.00
59337;BME280;45115;52.002;4.686;2022-09-06T01:21:27;101552.88;;;17.03;100.00
59337;BME280;45115;52.002;4.686;2022-09-06T01:24:17;101554.66;;;17.08;100.00
59337;BME280;45115;52.002;4.686;2022-09-06T01:30:04;101530.34;;;16.85;100.00
59337;BME280;45115;52.002;4.686;2022-09-06T01:32:34;101529.16;;;16.91;100.00
59337;BME280;45115;52.002;4.686;2022-09-06T01:35:10;101514.66;;;16.92;100.00
59337;BME280;45115;52.002;4.686;2022-09-06T01:37:40;101502.38;;;16.91;100.00
59337;BME280;45115;52.002;4.686;2022-09-06T01:40:08;101488.97;;;16.91;100.00
59337;BME280;45115;52.002;4.686;2022-09-06T01:42:36;101479.25;;;16.95;100.00
59337;BME280;45115;52.002;4.686;2022-09-06T01:45:08;101477.16;;;16.92;100.00
59337;BME280;45115;52.002;4.686;2022-09-06T01:47:39;101475.00;;;16.94;100.00
59337;BME280;45115;52.002;4.686;2022-09-06T01:50:34;101471.31;;;16.90;100.00
59337;BME280;45115;52.002;4.686;2022-09-06T01:53:19;101468.81;;;16.94;100.00
59337;BME280;45115;52.002;4.686;2022-09-06T01:55:51;101462.25;;;16.86;100.00
59337;BME280;45115;52.002;4.686;2022-09-06T01:58:51;101462.22;;;16.72;100.00
59337;BME280;45115;52.002;4.686;2022-09-06T02:01:27;101465.28;;;16.65;100.00
59337;BME280;45115;52.002;4.686;2022-09-06T02:03:58;101466.53;;;16.54;100.00
59337;BME280;45115;52.002;4.686;2022-09-06T02:06:29;101465.03;;;16.47;100.00
59337;BME280;45115;52.002;4.686;2022-09-06T02:09:02;101470.25;;;16.39;100.00
59337;BME280;45115;52.002;4.686;2022-09-06T02:11:33;101474.25;;;16.41;100.00
59337;BME280;45115;52.002;4.686;2022-09-06T02:14:05;101486.97;;;16.30;100.00
59337;BME280;45115;52.002;4.686;2022-09-06T02:16:36;101482.63;;;16.34;100.00
59337;BME280;45115;52.002;4.686;2022-09-06T02:19:09;101487.84;;;16.45;100.00
59337;BME280;45115;52.002;4.686;2022-09-06T02:21:40;101484.06;;;16.46;100.00
59337;BME280;45115;52.002;4.686;2022-09-06T02:24:09;101488.25;;;16.52;100.00
59337;BME280;45115;52.002;4.686;2022-09-06T02:26:41;101485.88;;;16.51;100.00
59337;BME280;45115;52.002;4.686;2022-09-06T02:29:08;101493.91;;;16.51;100.00
59337;BME280;45115;52.002;4.686;2022-09-06T02:31:40;101489.63;;;16.50;100.00
59337;BME280;45115;52.002;4.686;2022-09-06T02:34:10;101489.56;;;16.55;100.00
59337;BME280;45115;52.002;4.686;2022-09-06T02:36:39;101496.28;;;16.52;100.00
59337;BME280;45115;52.002;4.686;2022-09-06T02:39:06;101503.06;;;16.64;100.00
59337;BME280;45115;52.002;4.686;2022-09-06T02:41:33;101497.44;;;16.65;100.00
59337;BME280;45115;52.002;4.686;2022-09-06T02:44:00;101498.53;;;16.64;100.00
59337;BME280;45115;52.002;4.686;2022-09-06T02:46:27;101497.94;;;16.67;100.00
59337;BME280;45115;52.002;4.686;2022-09-06T02:48:55;101493.66;;;16.66;100.00
59337;BME280;45115;52.002;4.686;2022-09-06T02:51:22;101501.00;;;16.60;100.00
59337;BME280;45115;52.002;4.686;2022-09-06T02:53:48;101503.88;;;16.64;100.00
59337;BME280;45115;52.002;4.686;2022-09-06T02:56:15;101509.97;;;16.70;100.00
59337;BME280;45115;52.002;4.686;2022-09-06T02:58:41;101513.13;;;16.72;100.00
59337;BME280;45115;52.002;4.686;2022-09-06T03:01:08;101509.56;;;16.77;100.00
59337;BME280;45115;52.002;4.686;2022-09-06T03:03:34;101516.75;;;16.81;100.00
59337;BME280;45115;52.002;4.686;2022-09-06T03:06:03;101510.28;;;16.82;100.00
59337;BME280;45115;52.002;4.686;2022-09-06T03:08:29;101506.31;;;16.80;100.00
59337;BME280;45115;52.002;4.686;2022-09-06T03:10:58;101520.50;;;16.80;100.00
59337;BME280;45115;52.002;4.686;2022-09-06T03:13:25;101514.94;;;16.77;100.00
59337;BME280;45115;52.002;4.686;2022-09-06T03:15:54;101515.72;;;16.77;100.00
59337;BME280;45115;52.002;4.686;2022-09-06T03:18:20;101524.88;;;16.76;100.00
59337;BME280;45115;52.002;4.686;2022-09-06T03:20:48;101530.13;;;16.81;100.00
59337;BME280;45115;52.002;4.686;2022-09-06T03:23:16;101525.06;;;16.80;100.00
59337;BME280;45115;52.002;4.686;2022-09-06T03:25:43;101538.47;;;16.80;100.00
59337;BME280;45115;52.002;4.686;2022-09-06T03:28:10;101542.72;;;16.81;100.00
59337;BME280;45115;52.002;4.686;2022-09-06T03:30:37;101547.59;;;16.79;100.00
59337;BME280;45115;52.002;4.686;2022-09-06T03:33:03;101543.69;;;16.71;100.00
59337;BME280;45115;52.002;4.686;2022-09-06T03:35:30;101553.63;;;16.70;100.00
59337;BME280;45115;52.002;4.686;2022-09-06T03:37:56;101558.28;;;16.65;100.00
59337;BME280;45115;52.002;4.686;2022-09-06T03:40:24;101559.72;;;16.57;100.00
59337;BME280;45115;52.002;4.686;2022-09-06T03:42:51;101563.78;;;16.54;100.00
59337;BME280;45115;52.002;4.686;2022-09-06T03:45:17;101557.75;;;16.43;100.00
59337;BME280;45115;52.002;4.686;2022-09-06T03:47:44;101563.13;;;16.43;100.00
59337;BME280;45115;52.002;4.686;2022-09-06T03:50:10;101570.47;;;16.32;100.00
59337;BME280;45115;52.002;4.686;2022-09-06T03:52:37;101578.28;;;16.29;100.00
59337;BME280;45115;52.002;4.686;2022-09-06T03:55:05;101578.75;;;16.36;100.00
59337;BME280;45115;52.002;4.686;2022-09-06T03:57:33;101577.88;;;16.41;100.00
59337;BME280;45115;52.002;4.686;2022-09-06T04:00:00;101570.28;;;16.48;100.00
59337;BME280;45115;52.002;4.686;2022-09-06T04:02:36;101554.84;;;16.59;100.00
59337;BME280;45115;52.002;4.686;2022-09-06T04:05:03;101558.28;;;16.65;100.00
59337;BME280;45115;52.002;4.686;2022-09-06T04:07:31;101552.69;;;16.61;100.00
59337;BME280;45115;52.002;4.686;2022-09-06T04:09:57;101546.94;;;16.68;100.00
59337;BME280;45115;52.002;4.686;2022-09-06T04:12:24;101555.94;;;16.58;100.00
59337;BME280;45115;52.002;4.686;2022-09-06T04:14:51;101555.44;;;16.56;100.00
59337;BME280;45115;52.002;4.686;2022-09-06T04:17:18;101561.16;;;16.49;100.00
59337;BME280;45115;52.002;4.686;2022-09-06T04:19:45;101560.16;;;16.45;100.00
59337;BME280;45115;52.002;4.686;2022-09-06T04:22:11;101561.44;;;16.47;100.00
59337;BME280;45115;52.002;4.686;2022-09-06T04:24:38;101575.47;;;16.39;100.00
59337;BME280;45115;52.002;4.686;2022-09-06T04:27:04;101577.94;;;16.36;100.00
59337;BME280;45115;52.002;4.686;2022-09-06T04:29:32;101585.16;;;16.35;100.00
59337;BME280;45115;52.002;4.686;2022-09-06T04:31:59;101589.91;;;16.43;100.00
59337;BME280;45115;52.002;4.686;2022-09-06T04:34:26;101591.69;;;16.48;100.00
59337;BME280;45115;52.002;4.686;2022-09-06T04:36:53;101590.25;;;16.56;100.00
59337;BME280;45115;52.002;4.686;2022-09-06T04:39:19;101580.28;;;16.62;100.00
59337;BME280;45115;52.002;4.686;2022-09-06T04:41:46;101584.75;;;16.66;100.00
59337;BME280;45115;52.002;4.686;2022-09-06T04:44:12;101585.28;;;16.68;100.00
59337;BME280;45115;52.002;4.686;2022-09-06T04:46:40;101580.19;;;16.67;100.00
59337;BME280;45115;52.002;4.686;2022-09-06T04:49:08;101584.47;;;16.68;100.00
59337;BME280;45115;52.002;4.686;2022-09-06T04:51:35;101575.53;;;16.72;100.00
59337;BME280;45115;52.002;4.686;2022-09-06T04:54:03;101566.03;;;16.80;100.00
59337;BME280;45115;52.002;4.686;2022-09-06T04:56:30;101574.75;;;16.72;100.00
59337;BME280;45115;52.002;4.686;2022-09-06T04:58:59;101580.28;;;16.62;100.00
59337;BME280;45115;52.002;4.686;2022-09-06T05:01:38;101583.16;;;16.46;100.00
59337;BME280;45115;52.002;4.686;2022-09-06T05:04:04;101570.72;;;16.36;100.00
59337;BME280;45115;52.002;4.686;2022-09-06T05:06:32;101575.41;;;16.25;100.00
59337;BME280;45115;52.002;4.686;2022-09-06T05:08:59;101563.03;;;16.10;100.00
59337;BME280;45115;52.002;4.686;2022-09-06T05:11:26;101568.44;;;16.05;100.00
59337;BME280;45115;52.002;4.686;2022-09-06T05:13:52;101562.06;;;16.01;100.00
59337;BME280;45115;52.002;4.686;2022-09-06T05:16:19;101566.16;;;15.93;100.00
59337;BME280;45115;52.002;4.686;2022-09-06T05:18:45;101562.41;;;15.94;100.00
59337;BME280;45115;52.002;4.686;2022-09-06T05:21:12;101548.78;;;15.90;100.00
59337;BME280;45115;52.002;4.686;2022-09-06T05:23:40;101543.44;;;15.90;100.00
59337;BME280;45115;52.002;4.686;2022-09-06T05:26:07;101550.44;;;15.86;100.00
59337;BME280;45115;52.002;4.686;2022-09-06T05:28:33;101544.22;;;15.91;100.00
59337;BME280;45115;52.002;4.686;2022-09-06T05:31:07;101543.88;;;15.98;100.00
59337;BME280;45115;52.002;4.686;2022-09-06T05:33:35;101543.47;;;16.10;100.00
59337;BME280;45115;52.002;4.686;2022-09-06T05:36:02;101548.41;;;16.22;100.00
59337;BME280;45115;52.002;4.686;2022-09-06T05:38:28;101554.78;;;16.26;100.00
59337;BME280;45115;52.002;4.686;2022-09-06T05:40:56;101553.72;;;16.27;100.00
59337;BME280;45115;52.002;4.686;2022-09-06T05:43:23;101540.03;;;16.28;100.00
59337;BME280;45115;52.002;4.686;2022-09-06T05:45:50;101545.53;;;16.37;100.00
59337;BME280;45115;52.002;4.686;2022-09-06T05:48:17;101538.28;;;16.38;100.00
59337;BME280;45115;52.002;4.686;2022-09-06T05:50:44;101533.88;;;16.47;100.00
59337;BME280;45115;52.002;4.686;2022-09-06T05:53:10;101538.06;;;16.53;100.00
59337;BME280;45115;52.002;4.686;2022-09-06T05:55:37;101530.97;;;16.63;100.00
59337;BME280;45115;52.002;4.686;2022-09-06T05:58:05;101529.50;;;16.70;100.00
59337;BME280;45115;52.002;4.686;2022-09-06T06:00:31;101523.34;;;16.70;100.00
59337;BME280;45115;52.002;4.686;2022-09-06T06:02:58;101534.41;;;16.82;100.00
59337;BME280;45115;52.002;4.686;2022-09-06T06:05:24;101533.22;;;16.89;100.00
59337;BME280;45115;52.002;4.686;2022-09-06T06:07:51;101534.16;;;16.98;100.00
59337;BME280;45115;52.002;4.686;2022-09-06T06:10:19;101525.44;;;17.06;100.00
59337;BME280;45115;52.002;4.686;2022-09-06T06:12:46;101532.81;;;17.15;100.00
59337;BME280;45115;52.002;4.686;2022-09-06T06:15:14;101528.56;;;17.27;100.00
59337;BME280;45115;52.002;4.686;2022-09-06T06:17:40;101527.28;;;17.39;100.00
59337;BME280;45115;52.002;4.686;2022-09-06T06:20:08;101525.50;;;17.48;100.00
59337;BME280;45115;52.002;4.686;2022-09-06T06:22:34;101517.28;;;17.59;100.00
59337;BME280;45115;52.002;4.686;2022-09-06T06:25:01;101519.84;;;17.64;100.00
59337;BME280;45115;52.002;4.686;2022-09-06T06:27:27;101518.16;;;17.68;100.00
59337;BME280;45115;52.002;4.686;2022-09-06T06:29:54;101516.78;;;17.71;100.00
59337;BME280;45115;52.002;4.686;2022-09-06T06:32:22;101513.19;;;17.75;100.00
59337;BME280;45115;52.002;4.686;2022-09-06T06:34:48;101511.19;;;17.81;100.00
59337;BME280;45115;52.002;4.686;2022-09-06T06:37:15;101512.97;;;17.86;100.00
59337;BME280;45115;52.002;4.686;2022-09-06T06:39:41;101505.91;;;17.90;100.00
59337;BME280;45115;52.002;4.686;2022-09-06T06:42:08;101505.97;;;17.99;100.00
59337;BME280;45115;52.002;4.686;2022-09-06T06:44:44;101510.13;;;18.05;100.00
59337;BME280;45115;52.002;4.686;2022-09-06T06:47:11;101512.16;;;18.13;100.00
59337;BME280;45115;52.002;4.686;2022-09-06T06:49:39;101506.38;;;18.20;100.00
59337;BME280;45115;52.002;4.686;2022-09-06T06:52:06;101507.91;;;18.35;100.00
59337;BME280;45115;52.002;4.686;2022-09-06T06:54:33;101503.19;;;18.41;100.00
59337;BME280;45115;52.002;4.686;2022-09-06T06:57:01;101512.41;;;18.49;100.00
59337;BME280;45115;52.002;4.686;2022-09-06T06:59:28;101519.81;;;18.66;100.00
59337;BME280;45115;52.002;4.686;2022-09-06T07:01:55;101521.66;;;18.79;100.00
59337;BME280;45115;52.002;4.686;2022-09-06T07:04:22;101516.53;;;19.01;100.00
59337;BME280;45115;52.002;4.686;2022-09-06T07:06:52;101513.50;;;19.25;100.00
59337;BME280;45115;52.002;4.686;2022-09-06T07:09:19;101518.47;;;19.41;100.00
59337;BME280;45115;52.002;4.686;2022-09-06T07:11:47;101513.59;;;19.43;100.00
59337;BME280;45115;52.002;4.686;2022-09-06T07:14:13;101515.03;;;19.49;100.00
59337;BME280;45115;52.002;4.686;2022-09-06T07:16:40;101513.16;;;19.58;100.00
59337;BME280;45115;52.002;4.686;2022-09-06T07:19:07;101503.84;;;19.73;100.00
59337;BME280;45115;52.002;4.686;2022-09-06T07:21:34;101507.03;;;19.93;99.88
59337;BME280;45115;52.002;4.686;2022-09-06T07:24:04;101503.09;;;19.99;98.73
59337;BME280;45115;52.002;4.686;2022-09-06T07:26:31;101497.56;;;20.22;98.28
59337;BME280;45115;52.002;4.686;2022-09-06T07:28:59;101504.38;;;20.20;97.13
59337;BME280;45115;52.002;4.686;2022-09-06T07:31:27;101505.50;;;20.18;97.64
59337;BME280;45115;52.002;4.686;2022-09-06T07:33:54;101497.09;;;20.29;95.28
59337;BME280;45115;52.002;4.686;2022-09-06T07:36:20;101492.13;;;20.66;93.04
59337;BME280;45115;52.002;4.686;2022-09-06T07:38:48;101495.06;;;21.00;91.49
59337;BME280;45115;52.002;4.686;2022-09-06T07:41:17;101496.09;;;21.17;88.68
59337;BME280;45115;52.002;4.686;2022-09-06T07:43:45;101490.41;;;21.48;87.15
59337;BME280;45115;52.002;4.686;2022-09-06T07:46:13;101487.91;;;21.73;86.12
59337;BME280;45115;52.002;4.686;2022-09-06T07:49:07;101500.28;;;22.17;83.65
59337;BME280;45115;52.002;4.686;2022-09-06T07:51:50;101503.22;;;22.46;81.81
59337;BME280;45115;52.002;4.686;2022-09-06T07:54:17;101509.81;;;22.57;81.63
59337;BME280;45115;52.002;4.686;2022-09-06T07:56:45;101507.59;;;22.50;82.22
59337;BME280;45115;52.002;4.686;2022-09-06T07:59:11;101495.66;;;22.51;82.21
59337;BME280;45115;52.002;4.686;2022-09-06T08:01:39;101503.53;;;22.44;83.02
59337;BME280;45115;52.002;4.686;2022-09-06T08:04:07;101497.81;;;22.46;82.17
59337;BME280;45115;52.002;4.686;2022-09-06T08:06:35;101497.13;;;22.82;81.41
59337;BME280;45115;52.002;4.686;2022-09-06T08:09:03;101501.31;;;22.92;80.45
59337;BME280;45115;52.002;4.686;2022-09-06T08:11:33;101491.75;;;23.45;79.24
59337;BME280;45115;52.002;4.686;2022-09-06T08:14:03;101495.19;;;23.83;77.92
59337;BME280;45115;52.002;4.686;2022-09-06T08:16:32;101507.97;;;24.11;75.23
59337;BME280;45115;52.002;4.686;2022-09-06T08:19:00;101517.03;;;24.02;73.83
59337;BME280;45115;52.002;4.686;2022-09-06T08:21:28;101518.75;;;23.95;73.50
59337;BME280;45115;52.002;4.686;2022-09-06T08:23:57;101505.34;;;23.73;74.30
59337;BME280;45115;52.002;4.686;2022-09-06T08:26:25;101509.97;;;23.73;74.32
59337;BME280;45115;52.002;4.686;2022-09-06T08:28:53;101514.41;;;24.06;74.18
59337;BME280;45115;52.002;4.686;2022-09-06T08:31:21;101512.69;;;23.73;75.27
59337;BME280;45115;52.002;4.686;2022-09-06T08:33:48;101508.25;;;23.93;74.43
59337;BME280;45115;52.002;4.686;2022-09-06T08:36:15;101514.41;;;24.06;74.19
59337;BME280;45115;52.002;4.686;2022-09-06T08:38:41;101507.72;;;24.45;72.80
59337;BME280;45115;52.002;4.686;2022-09-06T08:41:11;101505.25;;;24.39;71.72
59337;BME280;45115;52.002;4.686;2022-09-06T08:43:48;101514.41;;;24.06;71.79
59337;BME280;45115;52.002;4.686;2022-09-06T08:46:18;101506.44;;;23.97;71.82
59337;BME280;45115;52.002;4.686;2022-09-06T08:48:48;101511.94;;;24.13;71.35
59337;BME280;45115;52.002;4.686;2022-09-06T08:51:37;101509.63;;;24.44;71.64
59337;BME280;45115;52.002;4.686;2022-09-06T08:54:13;101509.31;;;24.46;71.00
59337;BME280;45115;52.002;4.686;2022-09-06T08:56:57;101514.44;;;24.35;70.78
59337;BME280;45115;52.002;4.686;2022-09-06T08:59:27;101502.22;;;24.41;70.21
59337;BME280;45115;52.002;4.686;2022-09-06T09:01:58;101501.97;;;24.62;69.39
59337;BME280;45115;52.002;4.686;2022-09-06T09:04:29;101506.09;;;24.72;69.85
59337;BME280;45115;52.002;4.686;2022-09-06T09:06:58;101502.94;;;24.70;66.74
59337;BME280;45115;52.002;4.686;2022-09-06T09:09:29;101508.47;;;24.74;66.55
59337;BME280;45115;52.002;4.686;2022-09-06T09:11:58;101504.03;;;24.98;66.58
59337;BME280;45115;52.002;4.686;2022-09-06T09:14:28;101505.69;;;25.18;64.81
59337;BME280;45115;52.002;4.686;2022-09-06T09:16:59;101511.28;;;24.93;66.16
59337;BME280;45115;52.002;4.686;2022-09-06T09:19:29;101512.63;;;24.84;65.72
59337;BME280;45115;52.002;4.686;2022-09-06T09:22:01;101517.13;;;24.79;66.12
59337;BME280;45115;52.002;4.686;2022-09-06T09:24:27;101518.59;;;24.89;67.26
59337;BME280;45115;52.002;4.686;2022-09-06T09:26:58;101523.53;;;25.19;66.92
59337;BME280;45115;52.002;4.686;2022-09-06T09:29:28;101523.72;;;25.27;65.14
59337;BME280;45115;52.002;4.686;2022-09-06T09:31:55;101522.84;;;25.23;65.50
59337;BME280;45115;52.002;4.686;2022-09-06T09:34:31;101516.69;;;25.26;63.97
59337;BME280;45115;52.002;4.686;2022-09-06T09:37:12;101527.13;;;25.24;64.68
59337;BME280;45115;52.002;4.686;2022-09-06T09:39:39;101517.31;;;25.35;64.58
59337;BME280;45115;52.002;4.686;2022-09-06T09:42:06;101519.31;;;25.54;64.00
59337;BME280;45115;52.002;4.686;2022-09-06T09:44:35;101509.06;;;25.47;63.89
59337;BME280;45115;52.002;4.686;2022-09-06T09:47:09;101517.91;;;25.44;64.50
59337;BME280;45115;52.002;4.686;2022-09-06T09:49:48;101523.25;;;25.41;65.56
59337;BME280;45115;52.002;4.686;2022-09-06T09:52:23;101518.13;;;25.71;65.59
59337;BME280;45115;52.002;4.686;2022-09-06T09:54:49;101529.09;;;25.95;65.16
59337;BME280;45115;52.002;4.686;2022-09-06T09:57:21;101529.63;;;25.65;64.47
59337;BME280;45115;52.002;4.686;2022-09-06T09:59:51;101537.00;;;25.48;64.86
59337;BME280;45115;52.002;4.686;2022-09-06T10:02:23;101532.84;;;25.70;64.07
59337;BME280;45115;52.002;4.686;2022-09-06T10:04:57;101531.75;;;26.31;63.52
59337;BME280;45115;52.002;4.686;2022-09-06T10:07:25;101521.59;;;26.27;62.21
59337;BME280;45115;52.002;4.686;2022-09-06T10:09:57;101515.69;;;26.45;62.01
59337;BME280;45115;52.002;4.686;2022-09-06T10:12:28;101525.03;;;26.67;60.07
59337;BME280;45115;52.002;4.686;2022-09-06T10:14:54;101524.44;;;26.35;59.80
59337;BME280;45115;52.002;4.686;2022-09-06T10:17:28;101530.03;;;26.42;60.96
59337;BME280;45115;52.002;4.686;2022-09-06T10:19:59;101530.22;;;26.53;60.33
59337;BME280;45115;52.002;4.686;2022-09-06T10:22:29;101537.59;;;26.52;60.47
59337;BME280;45115;52.002;4.686;2022-09-06T10:25:19;101539.00;;;26.66;61.58
59337;BME280;45115;52.002;4.686;2022-09-06T10:28:02;101541.31;;;26.64;61.70
59337;BME280;45115;52.002;4.686;2022-09-06T10:30:38;101541.41;;;26.71;60.91
59337;BME280;45115;52.002;4.686;2022-09-06T10:33:17;101538.53;;;26.60;59.85
59337;BME280;45115;52.002;4.686;2022-09-06T10:35:50;101541.00;;;26.69;60.70
59337;BME280;45115;52.002;4.686;2022-09-06T10:38:35;101539.59;;;26.79;60.01
59337;BME280;45115;52.002;4.686;2022-09-06T10:41:21;101540.31;;;26.76;60.51
59337;BME280;45115;52.002;4.686;2022-09-06T10:43:56;101543.06;;;26.99;60.41
59337;BME280;45115;52.002;4.686;2022-09-06T10:46:26;101546.88;;;26.95;59.39
59337;BME280;45115;52.002;4.686;2022-09-06T10:48:53;101544.38;;;26.62;60.21
59337;BME280;45115;52.002;4.686;2022-09-06T10:51:28;101553.47;;;26.70;60.22
59337;BME280;45115;52.002;4.686;2022-09-06T10:54:03;101555.28;;;26.86;60.76
59337;BME280;45115;52.002;4.686;2022-09-06T10:56:37;101552.44;;;27.02;60.31
59337;BME280;45115;52.002;4.686;2022-09-06T10:59:10;101556.50;;;26.88;59.98
59337;BME280;45115;52.002;4.686;2022-09-06T11:01:40;101565.16;;;26.94;59.90
59337;BME280;45115;52.002;4.686;2022-09-06T11:04:10;101559.03;;;27.24;59.58
59337;BME280;45115;52.002;4.686;2022-09-06T11:06:50;101553.00;;;27.65;58.75
59337;BME280;45115;52.002;4.686;2022-09-06T11:09:22;101562.91;;;27.50;58.44
59337;BME280;45115;52.002;4.686;2022-09-06T11:11:57;101559.78;;;27.21;60.13
59337;BME280;45115;52.002;4.686;2022-09-06T11:14:27;101560.00;;;27.12;58.78
59337;BME280;45115;52.002;4.686;2022-09-06T11:16:57;101560.06;;;27.16;59.32
59337;BME280;45115;52.002;4.686;2022-09-06T11:19:27;101554.50;;;27.09;58.55
59337;BME280;45115;52.002;4.686;2022-09-06T11:22:27;101558.56;;;27.45;59.26
59337;BME280;45115;52.002;4.686;2022-09-06T11:25:21;101567.94;;;27.75;57.60
59337;BME280;45115;52.002;4.686;2022-09-06T11:27:52;101558.38;;;27.89;57.32
59337;BME280;45115;52.002;4.686;2022-09-06T11:30:20;101568.91;;;27.90;56.89
59337;BME280;45115;52.002;4.686;2022-09-06T11:32:48;101565.28;;;28.13;57.27
59337;BME280;45115;52.002;4.686;2022-09-06T11:35:23;101572.34;;;28.14;56.15
59337;BME280;45115;52.002;4.686;2022-09-06T11:38:00;101567.28;;;27.82;54.81
59337;BME280;45115;52.002;4.686;2022-09-06T11:40:34;101573.41;;;27.75;55.39
59337;BME280;45115;52.002;4.686;2022-09-06T11:43:14;101564.22;;;27.60;56.15
59337;BME280;45115;52.002;4.686;2022-09-06T11:45:45;101561.97;;;27.66;55.39
59337;BME280;45115;52.002;4.686;2022-09-06T11:48:34;101564.59;;;27.58;56.02
59337;BME280;45115;52.002;4.686;2022-09-06T11:51:04;101565.91;;;27.99;55.42
59337;BME280;45115;52.002;4.686;2022-09-06T11:53:34;101575.47;;;28.16;54.07
59337;BME280;45115;52.002;4.686;2022-09-06T11:56:27;101585.00;;;28.30;53.93
59337;BME280;45115;52.002;4.686;2022-09-06T11:58:56;101569.16;;;28.43;53.73
59337;BME280;45115;52.002;4.686;2022-09-06T12:01:31;101567.31;;;27.85;55.79
59337;BME280;45115;52.002;4.686;2022-09-06T12:03:59;101574.06;;;27.14;55.66
59337;BME280;45115;52.002;4.686;2022-09-06T12:06:28;101573.75;;;27.19;55.72
59337;BME280;45115;52.002;4.686;2022-09-06T12:08:57;101581.56;;;27.21;56.69
59337;BME280;45115;52.002;4.686;2022-09-06T12:11:33;101575.63;;;27.42;55.83
59337;BME280;45115;52.002;4.686;2022-09-06T12:14:01;101574.22;;;27.52;53.64
59337;BME280;45115;52.002;4.686;2022-09-06T12:17:16;101576.94;;;27.25;54.78
59337;BME280;45115;52.002;4.686;2022-09-06T12:19:45;101573.38;;;27.21;54.70
59337;BME280;45115;52.002;4.686;2022-09-06T12:25:58;101555.25;;;27.05;56.76
59337;BME280;45115;52.002;4.686;2022-09-06T12:28:29;101544.63;;;27.24;56.25
59337;BME280;45115;52.002;4.686;2022-09-06T12:30:57;101537.75;;;27.33;55.09
59337;BME280;45115;52.002;4.686;2022-09-06T12:33:28;101542.06;;;27.62;54.04
59337;BME280;45115;52.002;4.686;2022-09-06T12:36:13;101552.03;;;28.11;53.45
59337;BME280;45115;52.002;4.686;2022-09-06T12:38:53;101541.38;;;28.33;53.11
59337;BME280;45115;52.002;4.686;2022-09-06T12:41:25;101540.81;;;28.20;52.88
59337;BME280;45115;52.002;4.686;2022-09-06T12:43:52;101534.22;;;27.87;52.92
59337;BME280;45115;52.002;4.686;2022-09-06T12:46:20;101529.13;;;27.85;52.02
59337;BME280;45115;52.002;4.686;2022-09-06T12:48:59;101522.69;;;28.01;51.76
59337;BME280;45115;52.002;4.686;2022-09-06T12:51:26;101522.28;;;28.33;52.36
59337;BME280;45115;52.002;4.686;2022-09-06T12:53:54;101516.13;;;28.40;50.09
59337;BME280;45115;52.002;4.686;2022-09-06T12:56:24;101519.16;;;28.01;50.51
59337;BME280;45115;52.002;4.686;2022-09-06T12:58:51;101519.69;;;28.14;49.64
59337;BME280;45115;52.002;4.686;2022-09-06T13:01:22;101527.03;;;27.71;49.85
59337;BME280;45115;52.002;4.686;2022-09-06T13:03:55;101518.13;;;27.78;51.21
59337;BME280;45115;52.002;4.686;2022-09-06T13:06:28;101513.13;;;28.18;50.15
59337;BME280;45115;52.002;4.686;2022-09-06T13:08:56;101514.81;;;28.27;45.23